Time;durP1;ratioP1;P1;durP2;ratioP2;P2;SDS_P1;SDS_P2;PMS_P1;PMS_P2;Temp;Humidity;BMP_temperature;BMP_pressure;BME280_temperature;BME280_humidity;BME280_pressure;Samples;Min_cycle;Max_cycle;Signal;HPM_P1;HPM_P2
2022/04/16 00:02:37;;;;;;;1.80;1.70;;;;;;;6.88;83.25;99161.89;220470;1271;24525;-73
2022/04/16 00:08:20;;;;;;;2.20;2.00;;;;;;;6.71;83.03;99169.42;220199;1271;22680;-73
2022/04/16 00:13:58;;;;;;;2.40;1.80;;;;;;;6.58;83.73;99164.30;220473;1271;22601;-73
2022/04/16 00:19:12;;;;;;;3.20;2.60;;;;;;;6.45;83.92;99172.31;219937;1271;22543;-73
2022/04/16 00:24:20;;;;;;;3.30;2.80;;;;;;;6.29;84.10;99174.18;220266;1271;22677;-73
2022/04/16 00:29:32;;;;;;;3.20;2.90;;;;;;;6.11;84.49;99172.88;220532;1273;24911;-73
2022/04/16 00:34:49;;;;;;;4.20;3.80;;;;;;;5.98;84.68;99175.01;220186;1273;22695;-73
2022/04/16 00:39:52;;;;;;;5.50;4.20;;;;;;;5.90;85.02;99180.72;220445;1273;22582;-72
2022/04/16 00:45:08;;;;;;;4.30;3.70;;;;;;;5.84;85.34;99185.92;220299;1273;24805;-73
2022/04/16 00:50:16;;;;;;;3.90;3.50;;;;;;;5.79;85.44;99189.20;220156;1273;22576;-72
2022/04/16 00:55:32;;;;;;;4.30;3.80;;;;;;;5.73;85.82;99194.45;220309;1274;22582;-72
2022/04/16 01:00:35;;;;;;;4.50;3.60;;;;;;;5.66;85.69;99194.46;220467;1272;22725;-72
2022/04/16 01:06:05;;;;;;;4.40;3.90;;;;;;;5.61;85.85;99202.59;220371;1273;22669;-71
2022/04/16 01:11:07;;;;;;;4.90;4.20;;;;;;;5.58;85.94;99203.66;220609;1271;25313;-73
2022/04/16 01:16:22;;;;;;;5.40;4.70;;;;;;;5.55;85.93;99215.05;220519;1273;22534;-72
2022/04/16 01:21:33;;;;;;;5.20;4.70;;;;;;;5.51;85.84;99222.80;220521;1273;22541;-75
2022/04/16 01:32:54;;;;;;;6.20;4.00;;;;;;;5.39;85.76;99220.07;220291;1271;24259;-72
2022/04/16 01:38:19;;;;;;;4.10;3.50;;;;;;;5.33;86.05;99224.88;219957;1271;22689;-73
2022/04/16 01:43:31;;;;;;;4.70;3.30;;;;;;;5.21;86.21;99234.09;220129;1273;22564;-72
2022/04/16 01:48:34;;;;;;;4.00;3.50;;;;;;;5.14;86.09;99235.09;220154;1271;22633;-73
2022/04/16 01:54:05;;;;;;;5.00;3.90;;;;;;;5.08;86.56;99241.98;220340;1271;22564;-72
2022/04/16 01:59:11;;;;;;;5.00;4.40;;;;;;;5.06;86.56;99250.89;220350;1271;22743;-72
2022/04/16 02:04:20;;;;;;;4.40;3.60;;;;;;;5.02;86.15;99258.69;220242;1271;22564;-72
2022/04/16 02:09:45;;;;;;;4.00;3.40;;;;;;;4.89;86.13;99264.63;220342;1271;26608;-72
2022/04/16 02:14:48;;;;;;;4.80;3.50;;;;;;;4.75;86.06;99268.15;220206;1271;24256;-71
2022/04/16 02:20:32;;;;;;;3.30;2.60;;;;;;;4.67;86.21;99269.27;220323;1271;23027;-71
2022/04/16 02:25:43;;;;;;;3.50;2.90;;;;;;;4.59;86.19;99273.80;220231;1271;22671;-72
2022/04/16 02:31:00;;;;;;;4.20;3.00;;;;;;;4.53;86.20;99280.75;220530;1271;22814;-72
2022/04/16 02:36:33;;;;;;;3.90;2.90;;;;;;;4.48;86.12;99282.09;220448;1273;22737;-73
2022/04/16 02:42:19;;;;;;;3.60;2.70;;;;;;;4.41;86.18;99288.95;220688;1271;22811;-73
2022/04/16 02:47:30;;;;;;;4.40;3.40;;;;;;;4.32;86.40;99296.79;220313;1271;24438;-73
2022/04/16 02:54:10;;;;;;;;;;;;;;;;;;;;;
2022/04/16 02:59:57;;;;;;;3.70;3.10;;;;;;;4.19;86.99;99307.39;220233;1271;24316;-76
2022/04/16 03:06:32;;;;;;;3.50;3.10;;;;;;;4.11;87.22;99314.33;220447;1271;24220;-75
2022/04/16 03:12:38;;;;;;;;;;;;;;;;;;;;;
2022/04/16 03:18:43;;;;;;;;;;;;;;;;;;;;;
2022/04/16 03:24:19;;;;;;;5.60;4.10;;;;;;;3.78;87.59;99333.05;220662;1271;25254;-76
2022/04/16 03:30:11;;;;;;;6.50;4.80;;;;;;;3.74;87.93;99343.24;220465;1271;24346;-76
2022/04/16 03:35:56;;;;;;;6.10;4.40;;;;;;;3.72;88.09;99349.02;220672;1271;22601;-77
2022/04/16 03:41:31;;;;;;;4.10;3.60;;;;;;;3.68;88.06;99348.45;220660;1271;22560;-75
2022/04/16 03:46:39;;;;;;;3.90;3.60;;;;;;;3.66;88.30;99352.48;220644;1271;22585;-75
2022/04/16 03:52:06;;;;;;;5.50;3.20;;;;;;;3.61;88.56;99366.27;220647;1271;24249;-76
2022/04/16 04:02:34;;;;;;;4.90;3.80;;;;;;;3.53;88.74;99370.17;220437;1271;22553;-74
2022/04/16 04:07:37;;;;;;;4.70;3.60;;;;;;;3.52;88.66;99375.69;220613;1271;22578;-74
2022/04/16 04:13:07;;;;;;;;;;;;;;;3.55;88.85;99381.52;220332;1271;22552;-74
2022/04/16 04:18:16;;;;;;;5.70;3.70;;;;;;;3.53;88.80;99382.33;220379;1271;23409;-74
2022/04/16 04:23:28;;;;;;;5.90;4.70;;;;;;;3.51;89.06;99387.69;220421;1271;25418;-74
2022/04/16 04:28:37;;;;;;;6.40;4.60;;;;;;;3.50;88.99;99393.28;220500;1271;22741;-74
2022/04/16 04:33:51;;;;;;;6.60;5.60;;;;;;;3.52;89.11;99392.31;220874;1271;25312;-74
2022/04/16 04:38:54;;;;;;;5.80;5.10;;;;;;;3.55;89.34;99394.77;220495;1271;23226;-75
2022/04/16 04:44:00;;;;;;;6.50;5.00;;;;;;;3.51;89.42;99397.22;220853;1271;23921;-74
2022/04/16 04:49:07;;;;;;;6.40;5.10;;;;;;;3.48;89.61;99405.25;220712;1271;22531;-74
2022/04/16 04:54:10;;;;;;;9.20;5.20;;;;;;;3.45;89.87;99405.38;220763;1271;22548;-73
2022/04/16 04:59:13;;;;;;;7.40;6.00;;;;;;;3.43;90.19;99404.60;220681;1271;22526;-71
2022/04/16 05:04:17;;;;;;;7.70;6.30;;;;;;;3.42;90.19;99407.55;220464;1272;24252;-74
2022/04/16 05:09:20;;;;;;;8.20;6.80;;;;;;;3.43;90.27;99417.63;220865;1271;22684;-74
2022/04/16 05:14:23;;;;;;;7.60;6.10;;;;;;;3.44;90.42;99428.61;220844;1271;22518;-74
2022/04/16 05:19:26;;;;;;;7.00;5.20;;;;;;;3.44;90.86;99434.45;220638;1271;23032;-73
2022/04/16 05:24:29;;;;;;;7.50;5.80;;;;;;;3.42;90.79;99436.17;220761;1271;25251;-75
2022/04/16 05:29:48;;;;;;;6.80;5.40;;;;;;;3.41;91.03;99443.21;220516;1271;24308;-74
2022/04/16 05:34:54;;;;;;;8.70;5.60;;;;;;;3.41;91.16;99446.54;220672;1271;22612;-75
2022/04/16 05:39:57;;;;;;;9.10;6.50;;;;;;;3.40;91.31;99455.89;220556;1271;22553;-75
2022/04/16 05:45:02;;;;;;;9.30;6.60;;;;;;;3.37;91.40;99470.96;220679;1271;25533;-75
2022/04/16 05:50:10;;;;;;;9.40;7.50;;;;;;;3.35;91.48;99472.70;220594;1271;22687;-74
2022/04/16 05:55:14;;;;;;;10.30;7.40;;;;;;;3.35;91.50;99477.64;220833;1271;24291;-76
2022/04/16 06:00:17;;;;;;;11.60;8.70;;;;;;;3.37;91.45;99485.52;220728;1271;24562;-75
2022/04/16 06:05:22;;;;;;;14.20;10.60;;;;;;;3.39;91.45;99481.50;220880;1271;27026;-74
2022/04/16 06:10:25;;;;;;;10.90;8.50;;;;;;;3.38;91.33;99486.52;221086;1271;26426;-75
2022/04/16 06:15:32;;;;;;;12.40;8.90;;;;;;;3.37;91.54;99490.41;220818;1271;25297;-76
2022/04/16 06:20:36;;;;;;;13.30;9.90;;;;;;;3.36;91.51;99497.06;220765;1271;22572;-75
2022/04/16 06:25:39;;;;;;;13.90;9.20;;;;;;;3.36;91.50;99501.91;221074;1271;22549;-75
2022/04/16 06:30:42;;;;;;;12.80;7.90;;;;;;;3.38;91.63;99509.78;220655;1273;24286;-75
2022/04/16 06:35:48;;;;;;;13.30;9.10;;;;;;;3.38;91.62;99513.86;220734;1273;24289;-76
2022/04/16 06:40:51;;;;;;;13.00;8.80;;;;;;;3.40;91.59;99518.24;220682;1273;24247;-76
2022/04/16 06:45:54;;;;;;;14.30;9.60;;;;;;;3.42;91.73;99524.41;220697;1273;22668;-76
2022/04/16 06:50:57;;;;;;;17.00;11.00;;;;;;;3.43;91.67;99530.30;220674;1271;24284;-74
2022/04/16 06:56:01;;;;;;;19.70;11.90;;;;;;;3.44;91.72;99536.04;220388;1273;24232;-75
2022/04/16 07:01:04;;;;;;;19.30;13.20;;;;;;;3.48;91.56;99538.16;220587;1273;22540;-74
2022/04/16 07:06:11;;;;;;;22.20;13.40;;;;;;;3.49;91.61;99542.85;220609;1271;24407;-73
2022/04/16 07:11:14;;;;;;;20.70;13.20;;;;;;;3.51;91.67;99546.42;220512;1271;22544;-73
2022/04/16 07:16:17;;;;;;;21.90;14.30;;;;;;;3.55;91.73;99549.59;220761;1271;22707;-75
2022/04/16 07:21:21;;;;;;;18.90;12.60;;;;;;;3.61;91.65;99552.10;220626;1271;23429;-75
2022/04/16 07:26:24;;;;;;;21.40;13.50;;;;;;;3.68;91.67;99558.28;220539;1271;24266;-74
2022/04/16 07:31:37;;;;;;;19.30;13.00;;;;;;;3.75;91.50;99566.56;220367;1271;250528;-75
2022/04/16 07:37:03;;;;;;;25.70;15.70;;;;;;;3.81;91.53;99574.39;220752;1271;22549;-75
2022/04/16 07:42:06;;;;;;;28.30;17.70;;;;;;;3.87;91.36;99576.63;220835;1271;22607;-74
2022/04/16 07:47:09;;;;;;;26.70;16.70;;;;;;;3.94;91.23;99582.13;220429;1273;25365;-75
2022/04/16 07:52:15;;;;;;;27.10;17.20;;;;;;;3.94;90.84;99583.66;220499;1273;24964;-74
2022/04/16 07:57:21;;;;;;;22.50;15.60;;;;;;;3.87;90.76;99587.04;220497;1271;22551;-74
2022/04/16 08:02:24;;;;;;;25.90;16.60;;;;;;;3.82;90.64;99592.72;220621;1271;25882;-74
2022/04/16 08:07:39;;;;;;;;;;;;;;;;;;;;;
2022/04/16 08:12:46;;;;;;;23.40;16.00;;;;;;;3.92;90.61;99605.52;220187;1271;25379;-74
2022/04/16 08:17:54;;;;;;;28.10;18.50;;;;;;;4.04;90.38;99606.46;220475;1271;24299;-75
2022/04/16 08:22:56;;;;;;;27.00;18.30;;;;;;;4.14;90.13;99607.92;220846;1271;24796;-74
2022/04/16 08:28:00;;;;;;;29.70;18.70;;;;;;;4.29;90.11;99609.19;220888;1270;24377;-73
2022/04/16 08:33:05;;;;;;;24.40;17.50;;;;;;;4.51;90.10;99606.27;220392;1271;22717;-74
2022/04/16 08:38:08;;;;;;;26.10;18.50;;;;;;;4.73;89.74;99612.23;220454;1271;24311;-74
2022/04/16 08:43:11;;;;;;;49.20;30.40;;;;;;;4.92;89.33;99610.89;220633;1271;22609;-74
2022/04/16 08:48:17;;;;;;;54.40;41.70;;;;;;;5.13;88.79;99614.13;220565;1271;22708;-75
2022/04/16 08:53:20;;;;;;;23.60;18.10;;;;;;;5.40;88.52;99613.80;220461;1271;25391;-74
2022/04/16 08:58:22;;;;;;;23.10;19.20;;;;;;;5.42;87.64;99623.84;220347;1271;22854;-74
2022/04/16 09:03:55;;;;;;;18.30;16.20;;;;;;;5.37;86.84;99638.31;220500;1271;25319;-74
2022/04/16 09:09:13;;;;;;;20.80;17.30;;;;;;;5.27;85.96;99646.59;220535;1271;25231;-74
2022/04/16 09:14:16;;;;;;;15.70;14.00;;;;;;;5.03;85.04;99650.72;220763;1271;24343;-75
2022/04/16 09:19:21;;;;;;;15.00;12.80;;;;;;;4.87;84.30;99657.79;220756;1271;23457;-74
2022/04/16 09:24:27;;;;;;;11.40;10.20;;;;;;;4.93;83.99;99656.22;220416;1271;22547;-75
2022/04/16 09:29:40;;;;;;;6.70;6.00;;;;;;;5.25;83.59;99665.10;220564;1271;23947;-74
2022/04/16 09:34:47;;;;;;;10.20;9.10;;;;;;;5.30;82.24;99662.67;220387;1271;22560;-74
2022/04/16 09:39:50;;;;;;;9.00;8.10;;;;;;;5.34;82.23;99669.42;220637;1271;22522;-73
2022/04/16 09:44:53;;;;;;;8.90;7.80;;;;;;;5.43;81.63;99672.18;220517;1271;22783;-75
2022/04/16 09:50:11;;;;;;;8.60;7.80;;;;;;;5.47;81.53;99675.09;220408;1271;25374;-74
2022/04/16 09:55:21;;;;;;;7.70;7.00;;;;;;;5.41;81.25;99684.84;220743;1271;24102;-74
2022/04/16 10:00:26;;;;;;;10.50;9.30;;;;;;;5.40;80.74;99686.89;220727;1271;24363;-74
2022/04/16 10:05:29;;;;;;;10.10;8.50;;;;;;;5.54;81.01;99691.40;220963;1271;24287;-74
2022/04/16 10:10:40;;;;;;;9.50;8.60;;;;;;;5.93;81.51;99694.23;220667;1271;22574;-74
2022/04/16 10:16:05;;;;;;;9.40;8.50;;;;;;;6.21;80.38;99702.59;220697;1271;23261;-74
2022/04/16 10:21:18;;;;;;;10.30;9.30;;;;;;;6.15;79.13;99703.91;220852;1271;23379;-74
2022/04/16 10:26:24;;;;;;;9.40;7.90;;;;;;;6.09;78.70;99703.15;220796;1271;26464;-74
2022/04/16 10:31:33;;;;;;;10.40;9.40;;;;;;;6.29;78.93;99700.81;220470;1271;22594;-75
2022/04/16 10:36:52;;;;;;;8.10;6.90;;;;;;;6.79;78.46;99704.80;220487;1271;22554;-73
2022/04/16 10:42:01;;;;;;;6.50;5.90;;;;;;;7.12;77.38;99695.74;220345;1271;25328;-74
2022/04/16 10:47:10;;;;;;;6.10;5.50;;;;;;;7.22;75.99;99697.56;220773;1271;22561;-74
2022/04/16 10:52:40;;;;;;;4.90;4.40;;;;;;;7.28;75.56;99697.27;220613;1271;22920;-74
2022/04/16 10:57:43;;;;;;;3.50;3.20;;;;;;;7.39;73.91;99699.19;220366;1271;25302;-74
2022/04/16 11:02:47;;;;;;;4.10;3.30;;;;;;;7.43;72.20;99695.95;220643;1271;22548;-73
2022/04/16 11:07:54;;;;;;;3.30;3.00;;;;;;;7.89;72.27;99687.11;220556;1272;23286;-74
2022/04/16 11:12:57;;;;;;;2.50;2.00;;;;;;;8.48;70.38;99690.52;220857;1271;25434;-74
2022/04/16 11:18:03;;;;;;;2.20;2.10;;;;;;;9.02;69.11;99687.48;220499;1271;22625;-74
2022/04/16 11:23:11;;;;;;;1.80;1.70;;;;;;;9.08;66.40;99699.83;220802;1271;22537;-73
2022/04/16 11:39:23;;;;;;;2.00;1.70;;;;;;;8.96;63.39;99703.48;220356;1273;22536;-74
2022/04/16 11:44:41;;;;;;;1.80;1.70;;;;;;;9.28;61.86;99705.64;220315;1273;22582;-74
2022/04/16 11:49:49;;;;;;;2.10;1.70;;;;;;;9.63;60.42;99712.17;220658;1271;25394;-74
2022/04/16 11:55:25;;;;;;;1.70;1.60;;;;;;;9.51;58.77;99717.03;220226;1273;23206;-75
2022/04/16 12:00:53;;;;;;;1.70;1.40;;;;;;;9.34;56.34;99720.81;220539;1271;24957;-74
2022/04/16 12:05:59;;;;;;;;;;;;;;;9.57;55.18;99723.54;220327;1271;22541;-74
2022/04/16 12:11:05;;;;;;;1.90;1.60;;;;;;;9.76;56.80;99716.79;220157;1271;24401;-74
2022/04/16 12:16:15;;;;;;;1.70;1.60;;;;;;;9.68;55.81;99722.36;220702;1271;22938;-74
2022/04/16 12:21:20;;;;;;;1.90;1.80;;;;;;;9.82;56.13;99720.23;220317;1271;22554;-74
2022/04/16 12:26:27;;;;;;;1.90;1.70;;;;;;;9.86;55.95;99729.63;220632;1271;24192;-73
2022/04/16 12:31:30;;;;;;;2.90;2.30;;;;;;;9.72;55.49;99732.51;220678;1271;24245;-73
2022/04/16 12:36:33;;;;;;;1.90;1.80;;;;;;;9.61;54.62;99734.84;220538;1271;24398;-73
2022/04/16 12:41:45;;;;;;;2.30;2.00;;;;;;;9.46;54.18;99729.83;220376;1271;24225;-74
2022/04/16 12:46:47;;;;;;;2.50;2.30;;;;;;;9.60;54.87;99733.70;220514;1271;24224;-74
2022/04/16 12:51:50;;;;;;;2.60;2.40;;;;;;;9.60;54.46;99740.30;220187;1271;24294;-73
2022/04/16 12:56:56;;;;;;;1.90;1.80;;;;;;;9.71;54.09;99734.80;220583;1271;22553;-75
2022/04/16 13:01:59;;;;;;;2.20;1.90;;;;;;;9.72;53.65;99742.08;220071;1271;22535;-73
2022/04/16 13:07:02;;;;;;;1.80;1.50;;;;;;;9.80;52.85;99737.05;220389;1271;22588;-74
2022/04/16 13:12:08;;;;;;;1.80;1.60;;;;;;;9.74;51.51;99743.38;220219;1271;26416;-73
2022/04/16 13:17:13;;;;;;;2.10;1.70;;;;;;;9.55;50.99;99752.41;220460;1272;26360;-73
2022/04/16 13:22:16;;;;;;;1.90;1.70;;;;;;;9.27;50.58;99758.73;220655;1271;23953;-74
2022/04/16 13:27:19;;;;;;;3.30;2.00;;;;;;;9.34;52.06;99745.84;220588;1271;22658;-74
2022/04/16 13:32:22;;;;;;;2.90;2.30;;;;;;;9.48;52.60;99751.34;220331;1271;22705;-74
2022/04/16 13:37:25;;;;;;;2.10;1.70;;;;;;;9.61;52.27;99746.83;220302;1271;22571;-73
2022/04/16 13:42:28;;;;;;;1.60;1.50;;;;;;;9.64;49.89;99754.71;220557;1271;22531;-73
2022/04/16 13:47:33;;;;;;;1.60;1.40;;;;;;;9.39;49.99;99749.63;220415;1271;22597;-73
2022/04/16 13:52:37;;;;;;;1.80;1.40;;;;;;;9.26;48.62;99750.48;220372;1271;22566;-73
2022/04/16 13:57:40;;;;;;;3.20;1.80;;;;;;;9.05;48.85;99746.35;220457;1271;22569;-73
2022/04/16 14:02:44;;;;;;;1.80;1.50;;;;;;;9.01;49.88;99749.27;220354;1273;25244;-73
2022/04/16 14:07:47;;;;;;;2.10;1.90;;;;;;;9.24;49.21;99748.39;220264;1271;25511;-74
2022/04/16 14:12:55;;;;;;;3.90;1.80;;;;;;;9.26;49.32;99747.70;220391;1271;25478;-73
2022/04/16 14:17:58;;;;;;;2.20;1.80;;;;;;;9.17;49.71;99744.64;220527;1271;25311;-73
2022/04/16 14:23:03;;;;;;;3.50;2.10;;;;;;;9.08;49.44;99754.30;220661;1271;25478;-73
2022/04/16 14:28:07;;;;;;;1.90;1.70;;;;;;;8.89;48.42;99754.39;220244;1273;24498;-73
2022/04/16 14:33:10;;;;;;;2.30;2.00;;;;;;;9.01;49.34;99747.29;220698;1271;24252;-72
2022/04/16 14:38:13;;;;;;;2.30;2.10;;;;;;;9.37;49.20;99745.54;220682;1271;26395;-74
2022/04/16 14:43:18;;;;;;;2.40;1.90;;;;;;;9.33;48.08;99748.88;220905;1271;23209;-73
2022/04/16 14:48:23;;;;;;;2.90;1.80;;;;;;;9.22;48.66;99754.74;220467;1271;23864;-73
2022/04/16 14:53:27;;;;;;;1.70;1.60;;;;;;;9.29;47.80;99749.70;220614;1271;25445;-74
2022/04/16 14:58:30;;;;;;;3.00;2.50;;;;;;;9.25;47.58;99760.43;220442;1271;25333;-72
2022/04/16 15:03:33;;;;;;;3.00;2.70;;;;;;;9.34;48.00;99762.42;220504;1271;22535;-72
2022/04/16 15:08:42;;;;;;;5.40;2.50;;;;;;;9.31;47.33;99767.91;220512;1271;25363;-73
2022/04/16 15:13:59;;;;;;;2.50;2.30;;;;;;;9.04;46.04;99774.95;220762;1271;25302;-72
2022/04/16 15:19:03;;;;;;;2.90;2.60;;;;;;;8.76;46.38;99776.39;220264;1272;24296;-73
2022/04/16 15:24:09;;;;;;;2.90;2.40;;;;;;;8.71;46.89;99773.94;220545;1271;25374;-73
2022/04/16 15:29:13;;;;;;;3.20;2.90;;;;;;;8.62;46.81;99766.62;220861;1271;22548;-72
2022/04/16 15:34:22;;;;;;;3.80;3.20;;;;;;;8.50;47.33;99773.05;220681;1271;23000;-72
2022/04/16 15:39:31;;;;;;;2.80;2.60;;;;;;;8.38;48.05;99777.34;220734;1271;25669;-72
2022/04/16 15:44:37;;;;;;;3.50;3.20;;;;;;;8.30;47.17;99782.04;220568;1271;26378;-72
2022/04/16 15:49:43;;;;;;;3.60;2.30;;;;;;;8.23;47.93;99782.11;220654;1271;23087;-72
2022/04/16 15:54:47;;;;;;;2.40;2.20;;;;;;;8.20;47.83;99793.66;220718;1271;22562;-73
2022/04/16 15:59:51;;;;;;;3.50;3.10;;;;;;;8.19;47.63;99797.50;220769;1271;22535;-72
2022/04/16 16:04:58;;;;;;;3.60;3.30;;;;;;;8.08;46.57;99804.45;220617;1271;26129;-71
2022/04/16 16:10:12;;;;;;;3.10;2.80;;;;;;;7.89;46.54;99807.42;220587;1271;26375;-73
2022/04/16 16:15:20;;;;;;;2.70;2.50;;;;;;;7.76;47.09;99811.09;220580;1271;22555;-75
2022/04/16 16:20:30;;;;;;;3.50;2.80;;;;;;;7.66;47.80;99810.68;220742;1271;22562;-72
2022/04/16 16:25:35;;;;;;;3.00;2.70;;;;;;;7.61;48.95;99810.93;220386;1273;22661;-72
2022/04/16 16:30:41;;;;;;;3.20;2.70;;;;;;;7.58;48.77;99813.22;220543;1271;26510;-71
2022/04/16 16:35:45;;;;;;;3.50;3.10;;;;;;;7.53;48.83;99805.95;220619;1271;24351;-72
2022/04/16 16:40:48;;;;;;;4.30;3.90;;;;;;;7.48;49.03;99816.05;220568;1271;23066;-72
2022/04/16 16:45:52;;;;;;;3.90;3.40;;;;;;;7.46;49.05;99807.91;220572;1271;22543;-72
2022/04/16 16:50:57;;;;;;;3.70;3.40;;;;;;;7.42;49.30;99815.58;220407;1271;26451;-72
2022/04/16 16:56:00;;;;;;;5.50;4.60;;;;;;;7.35;49.18;99814.34;220607;1270;25309;-71
2022/04/16 17:01:05;;;;;;;3.20;2.90;;;;;;;7.29;49.00;99821.55;220452;1271;22554;-71
2022/04/16 17:06:10;;;;;;;3.30;3.00;;;;;;;7.24;48.91;99823.70;220503;1271;26526;-72
2022/04/16 17:11:13;;;;;;;3.70;3.30;;;;;;;7.18;49.56;99821.05;220505;1271;22544;-74
2022/04/16 17:21:38;;;;;;;5.00;4.00;;;;;;;7.06;50.61;99832.23;220455;1271;22544;-72
2022/04/16 17:26:43;;;;;;;6.80;5.20;;;;;;;7.00;50.99;99836.45;220569;1271;22571;-71
2022/04/16 17:31:47;;;;;;;9.50;7.20;;;;;;;6.93;51.63;99839.95;220414;1271;22585;-72
2022/04/16 17:36:52;;;;;;;11.60;8.70;;;;;;;6.87;52.05;99837.60;220406;1271;22563;-74
2022/04/16 17:42:15;;;;;;;9.20;5.30;;;;;;;6.78;52.64;99841.98;220430;1270;22541;-72
2022/04/16 17:47:17;;;;;;;12.30;10.10;;;;;;;6.65;53.27;99847.76;220488;1271;22587;-72
2022/04/16 17:52:25;;;;;;;14.50;9.20;;;;;;;6.52;53.58;99853.40;220357;1271;22579;-72
2022/04/16 17:57:31;;;;;;;18.20;13.40;;;;;;;6.43;54.04;99859.52;220525;1271;22545;-72
2022/04/16 18:02:37;;;;;;;18.20;15.10;;;;;;;6.39;54.35;99863.91;220531;1271;22548;-72
2022/04/16 18:07:43;;;;;;;14.90;11.40;;;;;;;6.34;54.79;99868.70;220814;1271;22616;-71
2022/04/16 18:12:46;;;;;;;18.90;13.90;;;;;;;6.33;54.85;99875.42;220870;1270;22555;-71
2022/04/16 18:17:50;;;;;;;22.30;17.10;;;;;;;6.23;55.05;99879.67;220583;1271;22764;-72
2022/04/16 18:22:55;;;;;;;23.60;18.30;;;;;;;6.10;55.49;99883.33;220766;1271;22547;-72
2022/04/16 18:28:00;;;;;;;27.10;20.90;;;;;;;6.01;55.95;99887.17;220624;1271;23030;-72
2022/04/16 18:33:03;;;;;;;31.00;21.30;;;;;;;5.92;56.25;99893.95;220598;1271;22548;-72
2022/04/16 18:38:06;;;;;;;32.50;23.40;;;;;;;5.84;56.54;99894.39;220872;1271;22555;-71
2022/04/16 18:43:09;;;;;;;38.80;26.50;;;;;;;5.78;56.92;99901.48;220917;1271;22553;-72
2022/04/16 18:48:15;;;;;;;33.40;22.00;;;;;;;5.74;57.26;99908.23;220480;1271;25334;-72
2022/04/16 18:53:20;;;;;;;34.10;19.60;;;;;;;5.70;57.42;99908.20;220262;1271;22556;-72
2022/04/16 18:58:27;;;;;;;32.70;22.20;;;;;;;5.69;57.28;99912.36;220415;1271;22572;-71
2022/04/16 19:08:51;;;;;;;19.70;13.80;;;;;;;5.69;58.45;99906.84;220691;1271;22556;-72
2022/04/16 19:13:54;;;;;;;13.40;10.70;;;;;;;5.70;58.56;99906.70;220681;1271;22558;-71
2022/04/16 19:18:59;;;;;;;19.60;13.70;;;;;;;5.69;58.76;99911.30;220803;1271;22569;-71
2022/04/16 19:24:02;;;;;;;12.70;8.90;;;;;;;5.64;59.00;99917.30;220756;1271;22730;-71
2022/04/16 19:29:05;;;;;;;16.30;11.30;;;;;;;5.60;59.09;99917.36;220633;1270;355431;-72
2022/04/16 19:34:08;;;;;;;17.40;11.40;;;;;;;5.58;59.16;99917.87;220601;1271;22585;-70
2022/04/16 19:39:12;;;;;;;16.20;10.50;;;;;;;5.58;59.42;99921.19;220781;1271;22755;-71
2022/04/16 19:44:15;;;;;;;9.40;7.60;;;;;;;5.57;60.02;99921.70;220826;1270;25363;-72
2022/04/16 19:49:18;;;;;;;7.90;5.80;;;;;;;5.55;60.10;99915.17;220548;1271;22745;-72
2022/04/16 19:54:21;;;;;;;10.10;5.90;;;;;;;5.51;60.18;99919.73;220586;1270;24378;-72
2022/04/16 19:59:25;;;;;;;9.70;7.10;;;;;;;5.41;60.24;99923.47;220561;1271;23893;-72
2022/04/16 20:04:27;;;;;;;9.20;5.80;;;;;;;5.28;60.44;99926.38;220559;1271;24326;-71
2022/04/16 20:14:53;;;;;;;10.80;5.20;;;;;;;5.10;60.65;99927.11;220542;1271;22576;-71
2022/04/16 20:19:55;;;;;;;6.40;5.30;;;;;;;5.01;60.71;99926.60;220843;1271;24291;-71
2022/04/16 20:24:58;;;;;;;7.10;4.70;;;;;;;4.91;60.66;99929.19;220712;1271;25830;-72
2022/04/16 20:30:06;;;;;;;8.80;5.30;;;;;;;4.80;60.85;99924.48;220719;1271;22698;-71
2022/04/16 20:35:18;;;;;;;7.70;4.50;;;;;;;4.69;61.00;99924.80;220753;1271;25368;-72
2022/04/16 20:45:44;;;;;;;7.20;4.70;;;;;;;4.47;61.14;99917.93;220519;1271;23453;-72
2022/04/16 20:56:10;;;;;;;12.30;7.00;;;;;;;4.24;61.67;99921.70;220577;1271;22571;-70
2022/04/16 21:01:13;;;;;;;13.80;9.20;;;;;;;4.10;61.99;99923.98;219537;1271;22994;-70
2022/04/16 21:06:16;;;;;;;10.60;6.80;;;;;;;3.95;62.26;99920.12;220747;1271;22907;-71
2022/04/16 21:11:19;;;;;;;11.70;8.20;;;;;;;3.79;62.72;99918.64;220812;1271;22538;-71
2022/04/16 21:16:22;;;;;;;9.80;6.50;;;;;;;3.67;63.06;99912.71;220533;1271;22555;-71
2022/04/16 21:21:24;;;;;;;10.10;6.20;;;;;;;3.60;63.31;99912.46;220897;1271;25335;-71
2022/04/16 21:26:31;;;;;;;10.00;6.40;;;;;;;3.55;63.42;99913.74;220618;1271;22617;-71
2022/04/16 21:31:34;;;;;;;9.70;5.90;;;;;;;3.54;63.64;99911.64;220574;1271;26698;-71
2022/04/16 21:36:38;;;;;;;7.50;5.00;;;;;;;3.51;63.83;99907.30;220606;1271;24279;-71
2022/04/16 21:41:50;;;;;;;7.90;5.10;;;;;;;3.48;63.83;99903.08;220488;1271;24921;-71
2022/04/16 21:46:56;;;;;;;7.60;4.20;;;;;;;3.43;63.75;99904.34;220424;1271;22547;-71
2022/04/16 21:51:59;;;;;;;8.10;5.10;;;;;;;3.38;63.61;99902.41;220511;1271;24248;-71
2022/04/16 21:57:01;;;;;;;7.80;4.70;;;;;;;3.34;63.56;99902.75;220440;1272;24255;-71
2022/04/16 22:02:05;;;;;;;8.90;4.40;;;;;;;3.31;63.56;99902.34;219362;1271;22606;-70
2022/04/16 22:07:07;;;;;;;9.50;4.70;;;;;;;3.29;63.59;99908.05;219325;1271;24224;-72
2022/04/16 22:12:10;;;;;;;8.80;5.20;;;;;;;3.26;63.63;99909.36;220577;1271;22749;-70
2022/04/16 22:17:14;;;;;;;10.00;7.10;;;;;;;3.15;63.81;99913.86;219700;1271;22541;-71
2022/04/16 22:22:17;;;;;;;10.00;6.90;;;;;;;3.01;64.18;99909.94;219402;1274;25448;-70
2022/04/16 22:27:28;;;;;;;19.20;10.00;;;;;;;2.86;64.46;99903.60;220661;1271;22525;-70
2022/04/16 22:32:32;;;;;;;11.20;7.30;;;;;;;2.74;64.54;99906.33;220480;1271;22598;-71
2022/04/16 22:42:55;;;;;;;12.00;6.40;;;;;;;2.59;65.06;99906.21;220391;1271;22538;-71
2022/04/16 22:48:02;;;;;;;12.30;6.20;;;;;;;2.57;65.33;99905.98;220595;1271;22581;-70
2022/04/16 22:53:08;;;;;;;9.60;4.80;;;;;;;2.58;65.19;99907.80;220529;1271;22709;-71
2022/04/16 22:58:13;;;;;;;11.30;5.60;;;;;;;2.60;65.33;99907.64;220498;1271;25421;-70
2022/04/16 23:03:28;;;;;;;6.70;4.10;;;;;;;2.58;65.47;99897.15;219460;1271;22634;-71
2022/04/16 23:08:31;;;;;;;7.70;4.60;;;;;;;2.54;65.35;99890.44;220476;1271;24400;-70
2022/04/16 23:13:33;;;;;;;7.00;5.50;;;;;;;2.51;65.41;99888.25;219740;1271;22572;-71
2022/04/16 23:18:36;;;;;;;8.30;4.30;;;;;;;2.46;65.28;99884.52;220515;1269;25398;-72
2022/04/16 23:23:39;;;;;;;6.70;4.20;;;;;;;2.41;65.48;99882.42;220524;1271;22771;-71
2022/04/16 23:28:41;;;;;;;7.20;3.80;;;;;;;2.35;65.41;99874.58;220200;1271;22544;-71
2022/04/16 23:33:44;;;;;;;6.10;3.80;;;;;;;2.30;65.36;99876.95;220355;1271;22623;-70
2022/04/16 23:38:56;;;;;;;5.60;3.90;;;;;;;2.25;65.51;99871.39;220433;1271;22643;-71
2022/04/16 23:49:19;;;;;;;9.20;4.70;;;;;;;2.12;65.89;99868.73;219572;1271;22917;-71
2022/04/16 23:54:22;;;;;;;7.60;4.30;;;;;;;2.04;65.83;99866.61;219496;1271;23337;-72
2022/04/16 23:59:24;;;;;;;9.40;4.70;;;;;;;1.95;65.99;99866.67;219570;1271;25373;-71
